createdAt,value
2022-08-08T00:00:52.851Z,96.90
2022-08-08T00:02:57.265Z,97.00
2022-08-08T00:05:43.883Z,97.10
2022-08-08T00:08:51.268Z,97.20
2022-08-08T00:12:09.765Z,97.20
2022-08-08T00:14:59.276Z,97.20
2022-08-08T00:17:48.322Z,97.40
2022-08-08T00:20:49.605Z,97.50
2022-08-08T00:23:21.626Z,97.30
2022-08-08T00:25:59.574Z,97.50
2022-08-08T00:28:49.646Z,97.60
2022-08-08T00:32:28.563Z,97.70
2022-08-08T00:34:54.503Z,97.70
2022-08-08T00:37:48.167Z,97.90
2022-08-08T00:41:10.964Z,98.10
2022-08-08T00:43:24.852Z,98.20
2022-08-08T00:46:21.733Z,98.20
2022-08-08T00:49:22.206Z,98.30
2022-08-08T00:51:58.614Z,98.30
2022-08-08T00:54:57.688Z,98.50
2022-08-08T00:57:57.979Z,98.40
2022-08-08T01:00:28.570Z,98.40
2022-08-08T01:04:02.188Z,98.60
2022-08-08T01:06:51.830Z,98.50
2022-08-08T01:09:41.396Z,98.60
2022-08-08T01:12:29.823Z,98.50
2022-08-08T01:15:43.417Z,98.70
2022-08-08T01:18:25.312Z,98.80
2022-08-08T01:22:03.774Z,98.70
2022-08-08T01:24:37.737Z,98.80
2022-08-08T01:27:32.724Z,98.90
2022-08-08T01:30:18.971Z,99.20
2022-08-08T01:33:28.099Z,99.10
2022-08-08T01:36:24.523Z,99.10
2022-08-08T01:39:34.676Z,99.10
2022-08-08T01:42:21.191Z,99.00
2022-08-08T01:45:14.026Z,99.20
2022-08-08T01:48:14.692Z,98.90
2022-08-08T01:50:53.155Z,99.00
2022-08-08T01:55:17.508Z,99.10
2022-08-08T01:56:53.571Z,99.00
2022-08-08T02:00:02.196Z,99.10
2022-08-08T02:02:41.776Z,99.00
2022-08-08T02:05:55.735Z,99.20
2022-08-08T02:08:40.736Z,99.20
2022-08-08T02:11:59.052Z,99.10
2022-08-08T02:14:49.840Z,99.30
2022-08-08T02:18:10.373Z,99.30
2022-08-08T02:21:13.185Z,99.30
2022-08-08T02:23:54.611Z,99.30
2022-08-08T02:26:33.588Z,99.50
2022-08-08T02:29:18.819Z,99.30
2022-08-08T02:32:15.740Z,99.30
2022-08-08T02:35:08.184Z,99.30
2022-08-08T02:38:09.458Z,99.20
2022-08-08T02:40:55.600Z,99.40
2022-08-08T02:44:38.439Z,99.30
2022-08-08T02:50:32.894Z,99.40
2022-08-08T02:53:14.499Z,99.40
2022-08-08T02:56:19.057Z,99.30
2022-08-08T02:59:57.141Z,99.30
2022-08-08T03:02:50.454Z,99.40
2022-08-08T03:05:44.958Z,99.40
2022-08-08T03:08:27.736Z,99.40
2022-08-08T03:12:01.952Z,99.40
2022-08-08T03:15:57.190Z,99.40
2022-08-08T03:17:59.671Z,99.50
2022-08-08T03:20:52.178Z,99.50
2022-08-08T03:23:23.692Z,99.40
2022-08-08T03:25:51.902Z,99.60
2022-08-08T03:28:27.816Z,99.60
2022-08-08T03:31:22.202Z,99.60
2022-08-08T03:33:55.647Z,99.60
2022-08-08T03:36:31.356Z,99.70
2022-08-08T03:39:14.496Z,99.70
2022-08-08T03:42:27.434Z,99.80
2022-08-08T03:44:33.470Z,99.80
2022-08-08T03:47:00.404Z,99.90
2022-08-08T03:49:59.828Z,99.90
2022-08-08T03:52:30.349Z,99.90
2022-08-08T03:55:10.522Z,99.90
2022-08-08T03:58:30.840Z,99.90
2022-08-08T04:00:27.480Z,99.90
2022-08-08T04:03:06.413Z,99.90
2022-08-08T04:05:39.923Z,99.90
2022-08-08T04:08:33.021Z,99.90
2022-08-08T04:11:11.077Z,99.90
2022-08-08T04:14:04.298Z,99.90
2022-08-08T04:16:38.929Z,99.90
2022-08-08T04:19:23.301Z,99.90
2022-08-08T04:21:51.345Z,99.90
2022-08-08T04:24:28.994Z,99.90
2022-08-08T04:26:59.072Z,99.90
2022-08-08T04:29:27.208Z,99.90
2022-08-08T04:31:58.337Z,99.90
2022-08-08T04:34:32.220Z,99.90
2022-08-08T04:37:11.593Z,99.90
2022-08-08T04:40:03.404Z,99.90
2022-08-08T04:42:27.208Z,99.90
2022-08-08T04:44:55.731Z,99.90
2022-08-08T04:47:24.469Z,99.90
2022-08-08T04:49:58.661Z,99.90
2022-08-08T04:52:35.148Z,99.90
2022-08-08T04:55:04.527Z,99.90
2022-08-08T04:57:34.409Z,99.90
2022-08-08T05:00:03.588Z,99.90
2022-08-08T05:02:31.466Z,99.90
2022-08-08T05:04:59.997Z,99.90
2022-08-08T05:07:37.725Z,99.90
2022-08-08T05:10:08.877Z,99.90
2022-08-08T05:12:42.747Z,99.90
2022-08-08T05:15:20.542Z,99.90
2022-08-08T05:17:54.301Z,99.90
2022-08-08T05:20:21.559Z,99.90
2022-08-08T05:22:51.730Z,99.90
2022-08-08T05:25:21.520Z,99.90
2022-08-08T05:27:48.661Z,99.90
2022-08-08T05:30:15.477Z,99.90
2022-08-08T05:32:43.114Z,99.90
2022-08-08T05:35:14.590Z,99.90
2022-08-08T05:37:53.304Z,99.90
2022-08-08T05:40:28.407Z,99.90
2022-08-08T05:43:01.779Z,99.90
2022-08-08T05:45:43.172Z,99.90
2022-08-08T05:48:28.240Z,99.90
2022-08-08T05:50:58.751Z,99.90
2022-08-08T05:54:24.857Z,99.90
2022-08-08T05:56:15.422Z,99.90
2022-08-08T05:58:53.777Z,99.90
2022-08-08T06:01:51.770Z,99.90
2022-08-08T06:04:23.629Z,99.90
2022-08-08T06:07:04.006Z,99.90
2022-08-08T06:09:58.020Z,99.90
2022-08-08T06:12:30.112Z,99.90
2022-08-08T06:15:03.021Z,99.90
2022-08-08T06:18:18.094Z,99.90
2022-08-08T06:20:20.933Z,99.90
2022-08-08T06:22:49.497Z,99.90
2022-08-08T06:25:18.188Z,99.90
2022-08-08T06:27:51.417Z,99.90
2022-08-08T06:30:28.349Z,99.90
2022-08-08T06:32:57.828Z,99.90
2022-08-08T06:36:07.864Z,99.90
2022-08-08T06:38:17.730Z,99.90
2022-08-08T06:40:48.308Z,99.90
2022-08-08T06:43:21.186Z,99.90
2022-08-08T06:45:58.181Z,99.90
2022-08-08T06:48:26.657Z,99.90
2022-08-08T06:50:55.664Z,99.90
2022-08-08T06:53:23.125Z,99.90
2022-08-08T06:56:01.896Z,99.90
2022-08-08T06:58:30.865Z,99.90
2022-08-08T07:01:24.369Z,99.90
2022-08-08T07:04:37.476Z,99.90
2022-08-08T07:06:47.899Z,99.90
2022-08-08T07:09:20.955Z,99.80
2022-08-08T07:11:53.623Z,99.90
2022-08-08T07:14:34.411Z,99.90
2022-08-08T07:17:09.430Z,99.90
2022-08-08T07:19:44.602Z,99.60
2022-08-08T07:22:18.716Z,99.90
2022-08-08T07:24:59.460Z,99.90
2022-08-08T07:27:47.199Z,99.10
2022-08-08T07:30:19.710Z,98.70
2022-08-08T07:32:53.529Z,98.50
2022-08-08T07:35:21.605Z,98.60
2022-08-08T07:38:04.556Z,98.30
2022-08-08T07:40:40.095Z,98.10
2022-08-08T07:43:09.289Z,98.20
2022-08-08T07:46:05.796Z,97.30
2022-08-08T07:48:24.515Z,97.90
2022-08-08T07:50:58.966Z,98.00
2022-08-08T07:54:01.160Z,98.10
2022-08-08T07:56:37.264Z,97.50
2022-08-08T07:59:15.719Z,97.30
2022-08-08T08:02:33.462Z,97.10
2022-08-08T08:04:49.308Z,97.00
2022-08-08T08:07:31.879Z,96.80
2022-08-08T08:10:05.213Z,96.90
2022-08-08T08:12:38.062Z,97.00
2022-08-08T08:15:15.975Z,97.10
2022-08-08T08:17:48.388Z,97.60
2022-08-08T08:20:18.553Z,97.70
2022-08-08T08:22:47.308Z,97.60
2022-08-08T08:25:19.107Z,97.80
2022-08-08T08:27:47.300Z,97.30
2022-08-08T08:30:14.657Z,96.00
2022-08-08T08:32:51.324Z,95.90
2022-08-08T08:35:21.765Z,95.90
2022-08-08T08:38:15.808Z,95.70
2022-08-08T08:40:44.470Z,95.40
2022-08-08T08:43:19.218Z,95.40
2022-08-08T08:45:48.644Z,95.60
2022-08-08T08:48:19.591Z,94.80
2022-08-08T08:50:52.310Z,93.90
2022-08-08T08:53:54.503Z,93.50
2022-08-08T08:56:07.910Z,94.10
2022-08-08T08:58:42.359Z,93.80
2022-08-08T09:01:15.211Z,93.20
2022-08-08T09:03:46.528Z,92.90
2022-08-08T09:06:33.622Z,93.10
2022-08-08T09:09:25.839Z,93.10
2022-08-08T09:12:08.090Z,93.00
2022-08-08T09:14:35.722Z,92.90
2022-08-08T09:17:15.700Z,92.40
2022-08-08T09:22:00.295Z,92.10
2022-08-08T09:22:34.567Z,92.50
2022-08-08T09:25:01.959Z,91.90
2022-08-08T09:27:56.141Z,91.30
2022-08-08T09:30:22.066Z,91.10
2022-08-08T09:33:12.295Z,91.10
2022-08-08T09:35:49.338Z,91.40
2022-08-08T09:38:53.579Z,91.10
2022-08-08T09:42:14.243Z,90.40
2022-08-08T09:44:34.318Z,90.70
2022-08-08T09:48:01.971Z,90.10
2022-08-08T09:49:58.889Z,89.90
2022-08-08T09:52:54.098Z,89.50
2022-08-08T09:55:51.560Z,90.40
2022-08-08T09:58:20.203Z,90.00
2022-08-08T10:00:57.250Z,90.20
2022-08-08T10:03:27.919Z,89.60
2022-08-08T10:05:58.911Z,88.60
2022-08-08T10:08:30.539Z,87.90
2022-08-08T10:11:01.170Z,87.70
2022-08-08T10:13:35.648Z,87.20
2022-08-08T10:16:05.895Z,87.10
2022-08-08T10:18:35.915Z,87.10
2022-08-08T10:21:22.984Z,88.10
2022-08-08T10:23:58.643Z,88.50
2022-08-08T10:26:58.821Z,87.40
2022-08-08T10:29:28.146Z,86.20
2022-08-08T10:32:17.053Z,86.30
2022-08-08T10:34:57.151Z,86.70
2022-08-08T10:37:35.493Z,86.60
2022-08-08T10:40:17.020Z,85.80
2022-08-08T10:42:45.486Z,86.60
2022-08-08T10:45:15.886Z,86.50
2022-08-08T10:47:48.542Z,85.70
2022-08-08T10:50:30.828Z,85.30
2022-08-08T10:53:02.618Z,86.30
2022-08-08T10:55:39.359Z,87.00
2022-08-08T10:58:10.055Z,86.20
2022-08-08T11:00:48.649Z,86.30
2022-08-08T11:03:36.830Z,86.30
2022-08-08T11:06:12.477Z,84.00
2022-08-08T11:08:50.198Z,83.20
2022-08-08T11:11:32.571Z,84.10
2022-08-08T11:14:12.336Z,83.70
2022-08-08T11:16:46.934Z,83.40
2022-08-08T11:19:15.563Z,83.30
2022-08-08T11:21:55.469Z,82.70
2022-08-08T11:24:27.402Z,81.50
2022-08-08T11:27:00.856Z,81.50
2022-08-08T11:29:50.993Z,83.10
2022-08-08T11:32:29.458Z,83.60
2022-08-08T11:35:27.957Z,83.60
2022-08-08T11:38:39.057Z,83.70
2022-08-08T11:40:53.035Z,81.40
2022-08-08T11:43:23.740Z,81.70
2022-08-08T11:46:09.614Z,82.20
2022-08-08T11:48:41.499Z,82.90
2022-08-08T11:51:30.737Z,84.40
2022-08-08T11:54:01.957Z,84.00
2022-08-08T11:56:34.630Z,83.20
2022-08-08T11:59:09.819Z,83.10
2022-08-08T12:01:37.628Z,81.90
2022-08-08T12:04:06.951Z,83.00
2022-08-08T12:06:34.111Z,81.50
2022-08-08T12:09:17.260Z,81.10
2022-08-08T12:11:49.620Z,79.70
2022-08-08T12:14:24.086Z,79.50
2022-08-08T12:16:57.187Z,79.40
2022-08-08T12:19:37.670Z,79.70
2022-08-08T12:22:20.797Z,78.50
2022-08-08T12:24:53.745Z,77.00
2022-08-08T12:27:26.838Z,77.80
2022-08-08T12:30:02.825Z,78.90
2022-08-08T12:32:41.920Z,77.80
2022-08-08T12:35:21.380Z,79.90
2022-08-08T12:38:09.159Z,79.20
2022-08-08T12:40:56.447Z,79.20
2022-08-08T12:43:47.695Z,81.60
2022-08-08T12:46:26.147Z,80.80
2022-08-08T12:49:25.037Z,79.20
2022-08-08T12:51:58.432Z,78.50
2022-08-08T12:54:36.683Z,79.80
2022-08-08T12:57:26.201Z,81.30
2022-08-08T13:00:04.535Z,77.10
2022-08-08T13:02:42.093Z,76.00
2022-08-08T13:05:26.766Z,73.50
2022-08-08T13:08:20.502Z,75.20
2022-08-08T13:10:58.015Z,74.90
2022-08-08T13:13:37.398Z,73.20
2022-08-08T13:16:25.843Z,72.20
2022-08-08T13:19:01.666Z,72.00
2022-08-08T13:21:58.192Z,73.30
2022-08-08T13:24:41.966Z,72.00
2022-08-08T13:27:19.814Z,72.80
2022-08-08T13:30:01.697Z,72.60
2022-08-08T13:32:35.921Z,72.70
2022-08-08T13:35:11.761Z,73.30
2022-08-08T13:38:06.223Z,74.40
2022-08-08T13:40:35.658Z,75.20
2022-08-08T13:43:03.710Z,76.80
2022-08-08T13:45:31.482Z,75.40
2022-08-08T13:48:04.155Z,74.50
2022-08-08T13:50:49.287Z,73.80
2022-08-08T13:53:36.020Z,74.40
2022-08-08T13:56:11.071Z,74.60
2022-08-08T13:58:56.228Z,74.50
2022-08-08T14:01:32.861Z,73.80
2022-08-08T14:04:20.196Z,73.10
2022-08-08T14:06:47.756Z,73.80
2022-08-08T14:09:24.590Z,74.70
2022-08-08T14:11:59.917Z,75.20
2022-08-08T14:14:41.825Z,75.00
2022-08-08T14:17:11.798Z,74.30
2022-08-08T14:19:57.544Z,74.50
2022-08-08T14:22:37.965Z,75.50
2022-08-08T14:25:15.281Z,75.20
2022-08-08T14:27:59.984Z,74.50
2022-08-08T14:30:34.473Z,76.10
2022-08-08T14:33:01.926Z,76.10
2022-08-08T14:35:36.050Z,75.70
2022-08-08T14:38:51.715Z,74.60
2022-08-08T14:40:58.893Z,74.60
2022-08-08T14:44:02.295Z,73.10
2022-08-08T14:46:31.170Z,73.10
2022-08-08T14:49:09.389Z,73.10
2022-08-08T14:51:51.814Z,73.00
2022-08-08T14:54:28.630Z,73.50
2022-08-08T14:56:58.113Z,74.40
2022-08-08T14:59:43.806Z,74.50
2022-08-08T15:02:15.276Z,73.20
2022-08-08T15:04:43.393Z,73.30
2022-08-08T15:07:22.450Z,72.30
2022-08-08T15:09:52.626Z,73.30
2022-08-08T15:12:27.089Z,73.80
2022-08-08T15:14:55.180Z,74.60
2022-08-08T15:17:23.318Z,73.90
2022-08-08T15:19:51.040Z,74.80
2022-08-08T15:22:23.606Z,75.00
2022-08-08T15:24:51.434Z,74.60
2022-08-08T15:27:57.698Z,75.10
2022-08-08T15:30:08.224Z,75.10
2022-08-08T15:32:39.976Z,74.60
2022-08-08T15:35:07.550Z,75.20
2022-08-08T15:37:34.841Z,75.40
2022-08-08T15:40:01.880Z,76.60
2022-08-08T15:42:32.533Z,76.50
2022-08-08T15:45:08.661Z,76.10
2022-08-08T15:47:35.555Z,75.90
2022-08-08T15:50:02.501Z,75.80
2022-08-08T15:52:29.572Z,76.00
2022-08-08T15:54:58.320Z,77.00
2022-08-08T15:57:25.180Z,76.00
2022-08-08T16:00:06.435Z,76.10
2022-08-08T16:02:44.005Z,76.30
2022-08-08T16:05:18.919Z,75.20
2022-08-08T16:07:51.172Z,75.60
2022-08-08T16:13:02.012Z,76.20
2022-08-08T16:13:33.909Z,75.90
2022-08-08T16:15:59.061Z,75.80
2022-08-08T16:18:30.715Z,76.50
2022-08-08T16:21:00.508Z,76.40
2022-08-08T16:23:31.875Z,74.90
2022-08-08T16:26:12.621Z,74.60
2022-08-08T16:28:41.490Z,74.50
2022-08-08T16:31:09.223Z,74.20
2022-08-08T16:33:39.090Z,73.60
2022-08-08T16:36:12.909Z,73.60
2022-08-08T16:38:46.436Z,73.70
2022-08-08T16:41:20.280Z,74.20
2022-08-08T16:43:51.015Z,75.30
2022-08-08T16:46:38.872Z,75.90
2022-08-08T16:49:09.057Z,76.20
2022-08-08T16:55:02.367Z,76.60
2022-08-08T16:55:07.219Z,76.00
2022-08-08T16:57:23.464Z,77.20
2022-08-08T17:00:06.181Z,78.30
2022-08-08T17:02:38.300Z,78.50
2022-08-08T17:05:06.705Z,78.80
2022-08-08T17:07:33.631Z,79.10
2022-08-08T17:10:06.913Z,79.20
2022-08-08T17:12:34.188Z,78.90
2022-08-08T17:15:18.111Z,79.20
2022-08-08T17:18:03.592Z,79.70
2022-08-08T17:20:39.676Z,80.50
2022-08-08T17:23:17.674Z,80.00
2022-08-08T17:25:54.980Z,79.60
2022-08-08T17:28:28.797Z,80.10
2022-08-08T17:31:01.678Z,81.00
2022-08-08T17:34:37.383Z,80.40
2022-08-08T17:36:29.411Z,81.20
2022-08-08T17:39:05.531Z,81.80
2022-08-08T17:41:48.503Z,81.90
2022-08-08T17:44:26.950Z,81.90
2022-08-08T17:46:56.969Z,82.00
2022-08-08T17:49:28.606Z,81.80
2022-08-08T17:52:05.753Z,82.60
2022-08-08T17:54:34.086Z,81.70
2022-08-08T17:57:02.931Z,82.40
2022-08-08T17:59:36.115Z,82.50
2022-08-08T18:02:04.042Z,83.40
2022-08-08T18:04:33.461Z,82.60
2022-08-08T18:08:03.051Z,82.70
2022-08-08T18:09:56.614Z,83.00
2022-08-08T18:12:25.191Z,83.60
2022-08-08T18:14:52.816Z,83.60
2022-08-08T18:17:28.517Z,82.60
2022-08-08T18:20:43.081Z,83.00
2022-08-08T18:22:58.433Z,83.00
2022-08-08T18:25:26.104Z,83.00
2022-08-08T18:27:55.436Z,83.20
2022-08-08T18:30:22.333Z,84.00
2022-08-08T18:32:49.211Z,84.60
2022-08-08T18:35:17.594Z,85.20
2022-08-08T18:37:48.131Z,86.00
2022-08-08T18:40:15.771Z,86.60
2022-08-08T18:42:45.603Z,86.50
2022-08-08T18:45:23.480Z,86.30
2022-08-08T18:48:07.673Z,86.50
2022-08-08T18:50:39.706Z,87.20
2022-08-08T18:53:17.115Z,87.30
2022-08-08T18:55:46.519Z,86.70
2022-08-08T18:58:14.418Z,87.10
2022-08-08T19:00:43.767Z,86.70
2022-08-08T19:03:13.691Z,87.10
2022-08-08T19:05:45.056Z,87.50
2022-08-08T19:08:24.774Z,87.70
2022-08-08T19:10:59.109Z,87.90
2022-08-08T19:13:53.685Z,86.90
2022-08-08T19:16:19.325Z,86.90
2022-08-08T19:18:53.115Z,87.10
2022-08-08T19:21:31.020Z,87.60
2022-08-08T19:24:05.568Z,87.10
2022-08-08T19:26:35.055Z,87.40
2022-08-08T19:29:03.464Z,87.60
2022-08-08T19:31:31.317Z,87.50
2022-08-08T19:34:35.635Z,87.40
2022-08-08T19:36:55.429Z,87.90
2022-08-08T19:39:30.688Z,88.20
2022-08-08T19:42:03.427Z,88.20
2022-08-08T19:44:42.683Z,87.80
2022-08-08T19:47:12.607Z,88.30
2022-08-08T19:49:43.405Z,88.20
2022-08-08T19:52:34.684Z,88.60
2022-08-08T19:55:12.869Z,89.60
2022-08-08T19:57:43.591Z,89.90
2022-08-08T20:00:30.503Z,89.00
2022-08-08T20:03:00.535Z,89.30
2022-08-08T20:06:13.762Z,89.30
2022-08-08T20:08:29.731Z,89.50
2022-08-08T20:10:59.637Z,89.40
2022-08-08T20:14:13.147Z,90.00
2022-08-08T20:16:13.518Z,89.90
2022-08-08T20:18:52.822Z,90.00
2022-08-08T20:21:24.986Z,90.10
2022-08-08T20:23:54.259Z,90.00
2022-08-08T20:26:27.588Z,90.10
2022-08-08T20:28:57.592Z,90.10
2022-08-08T20:31:24.552Z,90.20
2022-08-08T20:34:28.642Z,90.30
2022-08-08T20:36:58.719Z,90.10
2022-08-08T20:39:26.990Z,89.70
2022-08-08T20:42:06.864Z,89.90
2022-08-08T20:44:37.546Z,89.50
2022-08-08T20:47:05.880Z,90.20
2022-08-08T20:49:46.838Z,90.00
2022-08-08T20:52:15.490Z,89.70
2022-08-08T20:54:44.202Z,89.60
2022-08-08T20:57:17.515Z,89.50
2022-08-08T20:59:46.756Z,89.70
2022-08-08T21:02:25.324Z,89.90
2022-08-08T21:05:00.717Z,89.50
2022-08-08T21:07:31.231Z,89.80
2022-08-08T21:10:17.479Z,89.80
2022-08-08T21:12:52.764Z,89.60
2022-08-08T21:16:05.425Z,89.60
2022-08-08T21:18:06.724Z,89.90
2022-08-08T21:20:34.913Z,89.90
2022-08-08T21:23:03.086Z,89.60
2022-08-08T21:25:36.308Z,89.70
2022-08-08T21:28:09.743Z,89.90
2022-08-08T21:30:42.028Z,89.60
2022-08-08T21:33:11.602Z,89.50
2022-08-08T21:36:13.746Z,89.60
2022-08-08T21:38:27.016Z,89.30
2022-08-08T21:40:55.408Z,89.20
2022-08-08T21:43:33.055Z,89.70
2022-08-08T21:48:07.863Z,89.70
2022-08-08T21:48:49.352Z,89.40
2022-08-08T21:51:45.887Z,89.10
2022-08-08T21:54:35.368Z,88.70
2022-08-08T21:56:55.849Z,88.70
2022-08-08T21:59:22.926Z,88.80
2022-08-08T22:01:52.466Z,89.00
2022-08-08T22:04:24.613Z,88.80
2022-08-08T22:06:52.847Z,88.90
2022-08-08T22:09:20.355Z,89.00
2022-08-08T22:12:08.644Z,89.10
2022-08-08T22:14:36.840Z,89.40
2022-08-08T22:17:04.189Z,89.40
2022-08-08T22:20:13.103Z,89.60
2022-08-08T22:22:18.432Z,89.40
2022-08-08T22:24:45.603Z,89.60
2022-08-08T22:27:14.948Z,89.30
2022-08-08T22:29:58.788Z,89.10
2022-08-08T22:32:29.139Z,89.00
2022-08-08T22:34:56.356Z,90.00
2022-08-08T22:37:27.711Z,89.20
2022-08-08T22:40:16.368Z,89.10
2022-08-08T22:42:47.182Z,89.70
2022-08-08T22:45:15.627Z,90.00
2022-08-08T22:47:47.385Z,89.70
2022-08-08T22:50:27.033Z,89.80
2022-08-08T22:54:28.281Z,89.60
2022-08-08T22:55:58.972Z,89.90
2022-08-08T22:58:31.163Z,89.70
2022-08-08T23:01:00.426Z,89.70
2022-08-08T23:03:34.407Z,89.80
2022-08-08T23:06:16.305Z,90.00
2022-08-08T23:08:44.652Z,90.10
2022-08-08T23:12:17.363Z,90.20
2022-08-08T23:14:11.620Z,90.50
2022-08-08T23:16:43.851Z,90.30
2022-08-08T23:19:13.075Z,90.30
2022-08-08T23:21:42.467Z,90.20
2022-08-08T23:24:22.762Z,90.30
2022-08-08T23:26:53.405Z,90.20
2022-08-08T23:29:24.815Z,90.40
2022-08-08T23:31:52.210Z,90.40
2022-08-08T23:34:19.923Z,90.60
2022-08-08T23:36:48.027Z,90.60
2022-08-08T23:39:15.833Z,90.60
2022-08-08T23:41:46.892Z,90.60
2022-08-08T23:44:18.478Z,90.90
2022-08-08T23:49:01.306Z,90.70
2022-08-08T23:49:33.879Z,90.80
2022-08-08T23:52:05.796Z,90.80
2022-08-08T23:54:41.192Z,90.80
2022-08-08T23:57:15.333Z,90.80
